Other Surface Observations
Issued by NWS Great Falls, MT

Home | Current Version | Previous Version | Text Only | Print | Product List | Glossary On
Versions: 1 2 3 4 5 6 7 8 9 10 11 12 13 14 15 16 17 18 19 20 21 22 23 24 25 26 27 28 29 30 31 32 33 34 35 36 37 38 39 40 41 42 43 44 45 46 47 48 49 50
431
SXUS55 KTFX 232236
OSOTFX
AREA AWOS OBSERVATIONS
NATIONAL WEATHER SERVICE GREAT FALLS MT
0329 PM MST THU FEB 23 2017

METAR KPWD 232230Z AUTO 08005KT 8SM M03/M09 A3010 RMK PLENTYWOOD
METAR KPO1 232230Z AUTO 05009KT 5SM M03/M08 A3011 RMK POPLAR
METAR K1S3 232230Z AUTO 06009KT 7SM M01/M04 A2998 RMK FORSYTH
METAR KS71 232230Z AUTO 05007KT 10SM M02/M06 A3006 RMK CHINOOK
METAR K79S 232230Z AUTO 10SM M02/M06 A3003 RMK FORT BENTON
METAR K38S 232230Z AUTO 02011KT 10SM M01/M09 A2988 RMK DEER LODGE
METAR K3U3 232230Z AUTO 35012G17KT 10SM M01/M11 A2983 RMK ANACONDA
METAR K6S5 232230Z AUTO 36011KT 10SM 02/M08 A2988 RMK HAMILTON
METAR KS59 232230Z AUTO 35004KT 10SM 02/M08 A2997 RMK LIBBY
METAR K88M 232230Z AUTO 13003KT 10SM M01/M06 A2998 RMK EUREKA



USA.gov is the U.S. government's official web portal to all federal, state and local government web resources and services.